Time;durP1;ratioP1;P1;durP2;ratioP2;P2;SDS_P1;SDS_P2;PMS_P1;PMS_P2;Temp;Humidity;BMP_temperature;BMP_pressure;BME280_temperature;BME280_humidity;BME280_pressure;Samples;Min_cycle;Max_cycle;Signal;HPM_P1;HPM_P2
2022/04/29 00:00:49;;;;;;;26.30;24.00;;;;;;;;;;5057491;28;20442;-87
2022/04/29 00:03:16;;;;;;;26.13;23.73;;;;;;;;;;5056847;28;20442;-87
2022/04/29 00:05:46;;;;;;;25.77;24.27;;;;;;;;;;5057145;28;20970;-88
2022/04/29 00:08:13;;;;;;;25.53;23.60;;;;;;;;;;5057097;28;20437;-87
2022/04/29 00:10:41;;;;;;;26.20;24.10;;;;;;;;;;5056905;28;20452;-87
2022/04/29 00:13:09;;;;;;;27.23;25.30;;;;;;;;;;5057196;28;20459;-87
2022/04/29 00:15:37;;;;;;;26.93;25.13;;;;;;;;;;5056954;28;20817;-86
2022/04/29 00:18:06;;;;;;;26.40;24.27;;;;;;;;;;5056447;28;20435;-86
2022/04/29 00:20:34;;;;;;;27.83;25.00;;;;;;;;;;5056632;28;20945;-85
2022/04/29 00:23:01;;;;;;;26.23;24.30;;;;;;;;;;5056655;28;20915;-86
2022/04/29 00:25:29;;;;;;;27.53;25.37;;;;;;;;;;5056444;28;20477;-86
2022/04/29 00:27:57;;;;;;;26.27;24.37;;;;;;;;;;5056492;28;20479;-86
2022/04/29 00:30:24;;;;;;;26.53;24.47;;;;;;;;;;5056856;28;20470;-86
2022/04/29 00:32:52;;;;;;;26.47;24.50;;;;;;;;;;5056408;28;20963;-87
2022/04/29 00:35:20;;;;;;;26.43;24.30;;;;;;;;;;5056509;28;20434;-86
2022/04/29 00:37:49;;;;;;;25.70;23.73;;;;;;;;;;5071961;28;20866;-84
2022/04/29 00:40:17;;;;;;;25.27;23.47;;;;;;;;;;5056382;28;20880;-86
2022/04/29 00:42:45;;;;;;;26.20;24.37;;;;;;;;;;5056100;28;20442;-86
2022/04/29 00:45:13;;;;;;;26.33;24.40;;;;;;;;;;5056095;28;20447;-84
2022/04/29 00:47:40;;;;;;;25.23;23.43;;;;;;;;;;5056022;28;20440;-85
2022/04/29 00:50:08;;;;;;;27.50;25.50;;;;;;;;;;5056343;28;20439;-86
2022/04/29 00:52:40;;;;;;;27.10;24.83;;;;;;;;;;5056598;28;20433;-86
2022/04/29 00:55:09;;;;;;;27.23;25.20;;;;;;;;;;5055829;28;20409;-84
2022/04/29 00:57:39;;;;;;;26.47;24.63;;;;;;;;;;5055758;28;20436;-86
2022/04/29 01:00:08;;;;;;;26.70;24.37;;;;;;;;;;5055802;28;20418;-87
2022/04/29 01:02:36;;;;;;;28.57;25.97;;;;;;;;;;5055781;28;20826;-86
2022/04/29 01:05:05;;;;;;;27.20;25.10;;;;;;;;;;5055220;28;20430;-86
2022/04/29 01:07:32;;;;;;;27.00;24.80;;;;;;;;;;5055487;28;20472;-86
2022/04/29 01:10:01;;;;;;;27.70;25.60;;;;;;;;;;5056289;28;20421;-86
2022/04/29 01:12:30;;;;;;;26.63;24.80;;;;;;;;;;5055823;28;20444;-86
2022/04/29 01:14:58;;;;;;;27.47;25.50;;;;;;;;;;5071200;28;20450;-86
2022/04/29 01:17:26;;;;;;;27.20;25.27;;;;;;;;;;5055974;28;20421;-86
2022/04/29 01:19:54;;;;;;;26.30;24.50;;;;;;;;;;5071009;28;20804;-86
2022/04/29 01:22:22;;;;;;;27.00;24.90;;;;;;;;;;5055155;28;20497;-86
2022/04/29 01:24:50;;;;;;;28.10;25.77;;;;;;;;;;5055189;28;20446;-86
2022/04/29 01:27:18;;;;;;;27.67;25.40;;;;;;;;;;5055308;28;20485;-86
2022/04/29 01:29:47;;;;;;;28.33;25.90;;;;;;;;;;5055185;28;20483;-86
2022/04/29 01:32:14;;;;;;;27.73;25.37;;;;;;;;;;5055458;28;20750;-86
2022/04/29 01:34:41;;;;;;;27.43;25.10;;;;;;;;;;5055314;28;20444;-86
2022/04/29 01:37:08;;;;;;;28.97;26.53;;;;;;;;;;5054974;28;20900;-85
2022/04/29 01:39:37;;;;;;;27.40;25.20;;;;;;;;;;5055641;28;20417;-86
2022/04/29 01:42:05;;;;;;;27.37;25.37;;;;;;;;;;5055376;28;20414;-86
2022/04/29 01:44:32;;;;;;;28.70;26.40;;;;;;;;;;5054948;28;20424;-86
2022/04/29 01:47:00;;;;;;;26.50;24.50;;;;;;;;;;5055108;28;20508;-86
2022/04/29 01:49:27;;;;;;;27.93;25.73;;;;;;;;;;5054947;28;20816;-86
2022/04/29 01:51:56;;;;;;;26.67;24.47;;;;;;;;;;5054652;28;20448;-86
2022/04/29 01:54:23;;;;;;;28.53;26.30;;;;;;;;;;5054650;28;20528;-84
2022/04/29 01:56:52;;;;;;;29.47;27.27;;;;;;;;;;5054530;28;20453;-86
2022/04/29 01:59:20;;;;;;;28.50;26.30;;;;;;;;;;5054734;28;20425;-86
2022/04/29 02:01:47;;;;;;;28.80;26.50;;;;;;;;;;5054729;28;20438;-85
2022/04/29 02:04:15;;;;;;;27.73;25.60;;;;;;;;;;5054709;28;20411;-85
2022/04/29 02:06:43;;;;;;;28.87;26.67;;;;;;;;;;5054204;28;20502;-86
2022/04/29 02:09:10;;;;;;;27.70;25.83;;;;;;;;;;5054217;28;20436;-86
2022/04/29 02:11:37;;;;;;;29.20;26.60;;;;;;;;;;5054476;28;21116;-86
2022/04/29 02:14:06;;;;;;;29.90;27.50;;;;;;;;;;5054394;28;20456;-85
2022/04/29 02:16:34;;;;;;;29.13;27.03;;;;;;;;;;5053721;28;20888;-85
2022/04/29 02:19:02;;;;;;;28.37;25.80;;;;;;;;;;5054649;28;20436;-86
2022/04/29 02:21:29;;;;;;;28.80;26.80;;;;;;;;;;5054530;28;20410;-86
2022/04/29 02:23:57;;;;;;;28.50;26.33;;;;;;;;;;5054782;28;20423;-86
2022/04/29 02:26:25;;;;;;;28.23;25.83;;;;;;;;;;5053167;28;20457;-85
2022/04/29 02:28:52;;;;;;;28.03;25.87;;;;;;;;;;5054087;28;20415;-86
2022/04/29 02:31:21;;;;;;;27.07;24.80;;;;;;;;;;5054009;28;20410;-86
2022/04/29 02:33:48;;;;;;;28.27;25.90;;;;;;;;;;5053831;28;20399;-85
2022/04/29 02:36:16;;;;;;;28.47;26.03;;;;;;;;;;5053881;28;20444;-85
2022/04/29 02:38:44;;;;;;;27.87;25.57;;;;;;;;;;5053972;28;20448;-86
2022/04/29 02:41:11;;;;;;;27.13;25.23;;;;;;;;;;5054310;28;20446;-86
2022/04/29 02:43:40;;;;;;;28.67;26.40;;;;;;;;;;5053935;28;20435;-86
2022/04/29 02:46:08;;;;;;;29.87;27.57;;;;;;;;;;5053946;28;20457;-86
2022/04/29 02:48:37;;;;;;;27.30;24.80;;;;;;;;;;5053806;28;20459;-85
2022/04/29 02:51:04;;;;;;;28.70;26.17;;;;;;;;;;5053661;28;20447;-85
2022/04/29 02:53:32;;;;;;;29.90;27.00;;;;;;;;;;5053904;28;20522;-86
2022/04/29 02:55:59;;;;;;;26.83;24.53;;;;;;;;;;5053678;28;20819;-86
2022/04/29 02:58:27;;;;;;;29.10;26.93;;;;;;;;;;5053681;28;20435;-86
2022/04/29 03:00:56;;;;;;;29.67;26.50;;;;;;;;;;5053665;28;20410;-86
2022/04/29 03:03:23;;;;;;;32.80;27.00;;;;;;;;;;5053271;28;20919;-86
2022/04/29 03:05:52;;;;;;;29.03;26.40;;;;;;;;;;5053792;28;20765;-86
2022/04/29 03:08:20;;;;;;;27.90;25.80;;;;;;;;;;5053792;28;20954;-86
2022/04/29 03:10:47;;;;;;;28.50;26.20;;;;;;;;;;5053449;28;20411;-84
2022/04/29 03:13:15;;;;;;;28.97;26.33;;;;;;;;;;5053390;28;20978;-85
2022/04/29 03:15:42;;;;;;;27.33;25.33;;;;;;;;;;5053767;28;20439;-85
2022/04/29 03:18:20;;;;;;;28.27;25.83;;;;;;;;;;5053872;28;20231;-86
2022/04/29 03:20:49;;;;;;;28.63;26.42;;;;;;;;;;5053447;28;20425;-85
2022/04/29 03:23:18;;;;;;;27.85;25.85;;;;;;;;;;5053471;28;20646;-85
2022/04/29 03:25:45;;;;;;;32.87;25.80;;;;;;;;;;5054129;28;20189;-85
2022/04/29 03:28:12;;;;;;;27.70;25.55;;;;;;;;;;5054368;28;20486;-86
2022/04/29 03:30:41;;;;;;;30.17;26.58;;;;;;;;;;5057220;28;20217;-85
2022/04/29 03:33:09;;;;;;;28.85;26.45;;;;;;;;;;5057691;28;20243;-86
2022/04/29 03:35:40;;;;;;;33.57;30.40;;;;;;;;;;5057440;28;20193;-85
2022/04/29 03:38:07;;;;;;;28.83;26.00;;;;;;;;;;5057567;28;20430;-86
2022/04/29 03:40:36;;;;;;;29.13;26.33;;;;;;;;;;5057028;28;20891;-85
2022/04/29 03:43:04;;;;;;;29.97;27.10;;;;;;;;;;5057383;28;20446;-85
2022/04/29 03:45:31;;;;;;;29.15;26.85;;;;;;;;;;5057136;28;20469;-85
2022/04/29 03:47:59;;;;;;;29.88;27.05;;;;;;;;;;5056758;28;20217;-86
2022/04/29 03:50:28;;;;;;;29.23;26.58;;;;;;;;;;5057227;28;20223;-86
2022/04/29 03:52:56;;;;;;;28.27;25.87;;;;;;;;;;5057458;28;20196;-85
2022/04/29 03:55:24;;;;;;;27.90;25.73;;;;;;;;;;5056804;28;20489;-85
2022/04/29 03:57:53;;;;;;;28.80;26.50;;;;;;;;;;5057079;28;20804;-86
2022/04/29 04:00:21;;;;;;;28.97;26.67;;;;;;;;;;5057045;28;20824;-85
2022/04/29 04:02:49;;;;;;;30.17;26.37;;;;;;;;;;5056423;28;20429;-86
2022/04/29 04:05:17;;;;;;;41.40;26.90;;;;;;;;;;5056844;28;20472;-86
2022/04/29 04:07:45;;;;;;;28.05;25.65;;;;;;;;;;5056964;28;20558;-86
2022/04/29 04:10:13;;;;;;;28.43;26.13;;;;;;;;;;5072369;28;20250;-87
2022/04/29 04:12:41;;;;;;;31.23;28.60;;;;;;;;;;5057177;28;20534;-87
2022/04/29 04:15:11;;;;;;;29.45;26.88;;;;;;;;;;5057285;28;20437;-87
2022/04/29 04:17:39;;;;;;;28.00;25.52;;;;;;;;;;5056639;28;20251;-86
2022/04/29 04:20:07;;;;;;;28.00;25.65;;;;;;;;;;5056804;28;20192;-87
2022/04/29 04:22:36;;;;;;;28.90;26.50;;;;;;;;;;5056623;28;20639;-87
2022/04/29 04:25:03;;;;;;;28.98;26.55;;;;;;;;;;5056711;28;20486;-87
2022/04/29 04:27:31;;;;;;;28.70;26.40;;;;;;;;;;5056211;28;20225;-87
2022/04/29 04:29:58;;;;;;;28.40;26.27;;;;;;;;;;5056341;28;20517;-87
2022/04/29 04:32:27;;;;;;;29.10;26.50;;;;;;;;;;5056353;28;20503;-87
2022/04/29 04:34:55;;;;;;;28.40;26.20;;;;;;;;;;5056544;28;20422;-87
2022/04/29 04:37:23;;;;;;;28.17;25.97;;;;;;;;;;5072336;28;20869;-87
2022/04/29 04:39:51;;;;;;;27.77;25.55;;;;;;;;;;5055722;28;20434;-87
2022/04/29 04:42:18;;;;;;;28.77;26.58;;;;;;;;;;5056343;28;20204;-86
2022/04/29 04:44:49;;;;;;;28.07;25.80;;;;;;;;;;5072083;28;20200;-87
2022/04/29 04:47:16;;;;;;;28.77;26.27;;;;;;;;;;5056157;28;20574;-87
2022/04/29 04:49:45;;;;;;;34.78;31.13;;;;;;;;;;5056087;28;20418;-87
2022/04/29 04:52:12;;;;;;;28.65;26.52;;;;;;;;;;5056215;28;20208;-86
2022/04/29 04:54:40;;;;;;;27.75;25.52;;;;;;;;;;5056348;28;20258;-87
2022/04/29 04:57:08;;;;;;;29.20;27.10;;;;;;;;;;5071517;28;20236;-87
2022/04/29 04:59:35;;;;;;;27.77;25.57;;;;;;;;;;5056217;28;20501;-87
2022/04/29 05:02:02;;;;;;;28.67;26.03;;;;;;;;;;5055881;28;20439;-87
2022/04/29 05:04:30;;;;;;;32.27;28.80;;;;;;;;;;5055887;28;20425;-86
2022/04/29 05:06:58;;;;;;;28.67;26.47;;;;;;;;;;5055743;28;20587;-86
2022/04/29 05:09:26;;;;;;;27.67;25.48;;;;;;;;;;5071340;28;20916;-87
2022/04/29 05:11:53;;;;;;;28.27;26.00;;;;;;;;;;5055666;28;20193;-87
2022/04/29 05:14:21;;;;;;;28.07;25.80;;;;;;;;;;5055628;28;20445;-86
2022/04/29 05:16:48;;;;;;;27.83;25.17;;;;;;;;;;5055615;28;20431;-86
2022/04/29 05:19:15;;;;;;;26.85;24.58;;;;;;;;;;5055353;28;20205;-86
2022/04/29 05:21:43;;;;;;;27.77;25.70;;;;;;;;;;5055550;28;20550;-86
2022/04/29 05:24:11;;;;;;;28.52;26.17;;;;;;;;;;5055312;28;20201;-86
2022/04/29 05:26:39;;;;;;;27.07;25.07;;;;;;;;;;5055436;28;20212;-86
2022/04/29 05:29:06;;;;;;;28.17;25.80;;;;;;;;;;5055419;28;20454;-86
2022/04/29 05:31:34;;;;;;;26.83;24.88;;;;;;;;;;5055415;28;20426;-86
2022/04/29 05:34:01;;;;;;;29.07;26.33;;;;;;;;;;5055282;28;20193;-87
2022/04/29 05:36:29;;;;;;;28.73;26.27;;;;;;;;;;5055355;28;20448;-86
2022/04/29 05:44:28;;;;;;;28.13;25.92;;;;;;;;;;5055006;28;20418;-84
2022/04/29 05:46:55;;;;;;;28.40;26.13;;;;;;;;;;5054832;28;20193;-86
2022/04/29 05:49:22;;;;;;;27.90;25.67;;;;;;;;;;5055383;28;20193;-87
2022/04/29 05:51:50;;;;;;;27.90;25.80;;;;;;;;;;5055325;28;20863;-87
2022/04/29 05:54:17;;;;;;;28.90;26.60;;;;;;;;;;5055119;28;20967;-88
2022/04/29 05:56:47;;;;;;;27.87;25.57;;;;;;;;;;5054922;28;20454;-86
2022/04/29 05:59:14;;;;;;;28.47;26.10;;;;;;;;;;5055275;28;20448;-86
2022/04/29 06:01:41;;;;;;;28.27;25.93;;;;;;;;;;5054552;28;20474;-87
2022/04/29 06:04:09;;;;;;;28.08;25.73;;;;;;;;;;5054385;28;20430;-87
2022/04/29 06:06:36;;;;;;;29.70;27.20;;;;;;;;;;5054549;28;20667;-86
2022/04/29 06:09:04;;;;;;;29.23;26.83;;;;;;;;;;5054546;28;20490;-86
2022/04/29 06:11:31;;;;;;;29.03;26.53;;;;;;;;;;5054640;28;20521;-86
2022/04/29 06:14:00;;;;;;;29.53;26.90;;;;;;;;;;5054553;28;20426;-87
2022/04/29 06:16:27;;;;;;;28.53;26.10;;;;;;;;;;5054228;28;20558;-86
2022/04/29 06:18:55;;;;;;;28.37;26.07;;;;;;;;;;5054401;28;20450;-86
2022/04/29 06:21:22;;;;;;;26.97;25.17;;;;;;;;;;5054276;28;20888;-86
2022/04/29 06:23:49;;;;;;;27.53;25.47;;;;;;;;;;5054329;28;20462;-86
2022/04/29 06:26:17;;;;;;;28.95;25.98;;;;;;;;;;5054148;28;20455;-87
2022/04/29 06:28:44;;;;;;;28.85;26.17;;;;;;;;;;5054300;28;20237;-87
2022/04/29 06:31:13;;;;;;;28.23;26.02;;;;;;;;;;5054524;28;20208;-86
2022/04/29 06:33:40;;;;;;;28.50;25.87;;;;;;;;;;5054137;28;20567;-86
2022/04/29 06:36:09;;;;;;;28.07;25.93;;;;;;;;;;5054391;28;20455;-87
2022/04/29 06:38:36;;;;;;;28.40;26.30;;;;;;;;;;5054301;28;20443;-86
2022/04/29 06:41:03;;;;;;;28.07;25.93;;;;;;;;;;5054164;28;20451;-86
2022/04/29 06:43:31;;;;;;;29.67;26.60;;;;;;;;;;5053956;28;20450;-86
2022/04/29 06:45:59;;;;;;;28.77;25.83;;;;;;;;;;5053894;28;20460;-88
2022/04/29 06:48:28;;;;;;;30.13;27.43;;;;;;;;;;5054193;28;20486;-89
2022/04/29 06:50:55;;;;;;;28.87;26.50;;;;;;;;;;5054380;28;20463;-89
2022/04/29 06:53:22;;;;;;;27.93;25.73;;;;;;;;;;5054236;28;20463;-89
2022/04/29 06:55:50;;;;;;;30.20;27.23;;;;;;;;;;5054393;28;20520;-90
2022/04/29 06:58:17;;;;;;;29.70;27.00;;;;;;;;;;5053735;28;20496;-87
2022/04/29 07:00:45;;;;;;;26.70;24.80;;;;;;;;;;5054341;28;20554;-88
2022/04/29 07:03:12;;;;;;;28.77;26.23;;;;;;;;;;5053447;28;20467;-87
2022/04/29 07:05:42;;;;;;;28.50;26.33;;;;;;;;;;5053867;28;20446;-88
2022/04/29 07:08:10;;;;;;;28.30;25.90;;;;;;;;;;5053726;28;20526;-87
2022/04/29 07:10:38;;;;;;;29.93;27.33;;;;;;;;;;5054011;28;20490;-91
2022/04/29 07:13:05;;;;;;;28.80;26.60;;;;;;;;;;5069427;28;20443;-90
2022/04/29 07:15:33;;;;;;;29.97;27.13;;;;;;;;;;5053892;28;20445;-92
2022/04/29 07:18:00;;;;;;;28.67;26.23;;;;;;;;;;5054070;28;20859;-92
2022/04/29 07:20:28;;;;;;;27.67;25.30;;;;;;;;;;5054036;28;20463;-92
2022/04/29 07:22:57;;;;;;;28.67;26.30;;;;;;;;;;5054127;28;20459;-92
2022/04/29 07:25:25;;;;;;;28.67;26.37;;;;;;;;;;5054596;28;20824;-86
2022/04/29 07:27:52;;;;;;;29.60;27.10;;;;;;;;;;5053558;28;20478;-88
2022/04/29 07:30:19;;;;;;;28.57;26.00;;;;;;;;;;5053617;28;20475;-88
2022/04/29 07:32:47;;;;;;;27.57;24.90;;;;;;;;;;5054110;28;20745;-93
2022/04/29 07:43:31;;;;;;;28.70;26.30;;;;;;;;;;5053319;28;20425;-90
2022/04/29 07:45:58;;;;;;;29.83;27.27;;;;;;;;;;5053614;28;20439;-91
2022/04/29 07:48:26;;;;;;;28.23;25.70;;;;;;;;;;5053884;28;20482;-93
2022/04/29 07:50:54;;;;;;;29.07;26.43;;;;;;;;;;5053867;28;20500;-93
2022/04/29 07:53:23;;;;;;;30.13;27.40;;;;;;;;;;5052375;28;20446;-93
2022/04/29 07:55:50;;;;;;;30.30;27.70;;;;;;;;;;5053292;28;20955;-91
2022/04/29 07:58:18;;;;;;;30.37;27.40;;;;;;;;;;5053089;28;20426;-91
2022/04/29 08:00:45;;;;;;;29.83;27.20;;;;;;;;;;5053552;28;20403;-91
2022/04/29 08:03:12;;;;;;;30.60;27.33;;;;;;;;;;5053216;28;20443;-91
2022/04/29 08:05:40;;;;;;;29.37;26.93;;;;;;;;;;5053602;28;20522;-91
2022/04/29 08:08:07;;;;;;;29.70;27.10;;;;;;;;;;5053669;28;20457;-91
2022/04/29 08:10:36;;;;;;;28.60;26.30;;;;;;;;;;5053470;28;20437;-91
2022/04/29 08:13:05;;;;;;;28.87;26.40;;;;;;;;;;5053715;28;20764;-92
2022/04/29 08:15:33;;;;;;;29.03;26.70;;;;;;;;;;5055560;28;20807;-91
2022/04/29 08:18:01;;;;;;;28.63;26.10;;;;;;;;;;5057261;28;20843;-91
2022/04/29 08:20:28;;;;;;;28.87;26.07;;;;;;;;;;5057002;28;20437;-91
2022/04/29 08:22:55;;;;;;;30.67;27.10;;;;;;;;;;5056777;28;20907;-90
2022/04/29 08:25:23;;;;;;;30.33;27.63;;;;;;;;;;5057063;28;20419;-89
2022/04/29 08:27:52;;;;;;;31.70;29.00;;;;;;;;;;5057298;28;20449;-91
2022/04/29 08:30:19;;;;;;;31.10;28.20;;;;;;;;;;5057309;28;20448;-91
2022/04/29 08:32:50;;;;;;;29.87;27.40;;;;;;;;;;5056780;28;20437;-92
2022/04/29 08:35:18;;;;;;;32.03;29.20;;;;;;;;;;5057162;28;20430;-91
2022/04/29 08:37:45;;;;;;;30.00;27.73;;;;;;;;;;5056490;28;20908;-91
2022/04/29 08:40:13;;;;;;;30.67;28.37;;;;;;;;;;5055538;28;20458;-89
2022/04/29 08:42:41;;;;;;;31.53;28.83;;;;;;;;;;5056793;28;20449;-91
2022/04/29 08:45:12;;;;;;;31.47;28.60;;;;;;;;;;5056740;28;20420;-91
2022/04/29 08:47:40;;;;;;;32.23;29.43;;;;;;;;;;5056276;28;20895;-91
2022/04/29 08:50:09;;;;;;;31.60;29.20;;;;;;;;;;5056380;28;20443;-91
2022/04/29 08:52:37;;;;;;;32.13;29.13;;;;;;;;;;5056477;28;20483;-91
2022/04/29 09:00:39;;;;;;;31.17;28.23;;;;;;;;;;5056081;28;20434;-91
2022/04/29 09:03:07;;;;;;;30.70;27.80;;;;;;;;;;5054882;28;20417;-91
2022/04/29 09:05:35;;;;;;;30.57;27.87;;;;;;;;;;5056219;28;20468;-91
2022/04/29 09:08:04;;;;;;;32.60;29.73;;;;;;;;;;5056287;28;20485;-91
2022/04/29 09:10:34;;;;;;;31.10;27.90;;;;;;;;;;5056343;28;20483;-91
2022/04/29 09:13:11;;;;;;;32.87;28.33;;;;;;;;;;5055913;28;20480;-91
2022/04/29 09:15:46;;;;;;;31.87;29.27;;;;;;;;;;5056338;28;20741;-90
2022/04/29 09:18:14;;;;;;;31.83;29.17;;;;;;;;;;5055993;28;20794;-91
2022/04/29 09:20:42;;;;;;;30.57;28.20;;;;;;;;;;5056322;28;20418;-91
2022/04/29 09:23:10;;;;;;;32.93;30.30;;;;;;;;;;5055773;28;20446;-90
2022/04/29 09:25:37;;;;;;;31.80;28.90;;;;;;;;;;5055467;28;20497;-90
2022/04/29 09:28:06;;;;;;;29.17;26.63;;;;;;;;;;5055812;28;20478;-91
2022/04/29 09:30:38;;;;;;;29.40;27.00;;;;;;;;;;5055818;28;20474;-93
2022/04/29 09:33:08;;;;;;;29.67;27.10;;;;;;;;;;5055649;28;20448;-91
2022/04/29 09:35:36;;;;;;;31.77;29.07;;;;;;;;;;5055642;28;20444;-92
2022/04/29 09:40:49;;;;;;;32.60;29.40;;;;;;;;;;5055917;28;20419;-93
2022/04/29 09:43:16;;;;;;;32.27;29.00;;;;;;;;;;5054154;28;20452;-92
2022/04/29 09:45:44;;;;;;;31.67;29.13;;;;;;;;;;5054640;28;20426;-92
2022/04/29 09:48:13;;;;;;;32.57;29.87;;;;;;;;;;5055231;28;20422;-92
2022/04/29 09:50:50;;;;;;;31.73;28.93;;;;;;;;;;5055552;28;20435;-92
2022/04/29 09:53:20;;;;;;;33.80;30.60;;;;;;;;;;5053806;28;20444;-93
2022/04/29 09:56:07;;;;;;;33.20;30.20;;;;;;;;;;5054123;28;20860;-94
2022/04/29 09:58:34;;;;;;;32.57;30.07;;;;;;;;;;5055525;28;20429;-93
2022/04/29 10:01:04;;;;;;;32.27;29.47;;;;;;;;;;5055202;28;20405;-90
2022/04/29 10:03:33;;;;;;;31.57;29.17;;;;;;;;;;5055334;28;20480;-91
2022/04/29 10:06:02;;;;;;;32.50;29.90;;;;;;;;;;5055074;28;20745;-92
2022/04/29 10:08:32;;;;;;;33.63;30.83;;;;;;;;;;5055056;28;20446;-93
2022/04/29 10:11:00;;;;;;;32.90;29.93;;;;;;;;;;5055270;28;20425;-94
2022/04/29 10:13:28;;;;;;;32.30;29.70;;;;;;;;;;5054978;28;20818;-89
2022/04/29 10:15:57;;;;;;;34.13;30.53;;;;;;;;;;5054730;28;20796;-91
2022/04/29 10:21:21;;;;;;;33.37;29.90;;;;;;;;;;5054815;28;20863;-90
2022/04/29 10:23:49;;;;;;;33.03;30.23;;;;;;;;;;5054719;28;20437;-90
2022/04/29 10:26:18;;;;;;;32.63;29.80;;;;;;;;;;5054770;28;20836;-90
2022/04/29 10:28:46;;;;;;;32.40;29.80;;;;;;;;;;5054483;28;20493;-86
2022/04/29 10:31:18;;;;;;;33.70;30.87;;;;;;;;;;5054561;28;20512;-89
2022/04/29 10:33:45;;;;;;;34.17;31.17;;;;;;;;;;5054530;28;20515;-87
2022/04/29 10:36:16;;;;;;;33.40;30.30;;;;;;;;;;5054524;28;20410;-89
2022/04/29 10:38:46;;;;;;;35.93;32.50;;;;;;;;;;5053845;28;20452;-90
2022/04/29 10:41:17;;;;;;;33.60;30.70;;;;;;;;;;5054224;28;20813;-91
2022/04/29 10:43:48;;;;;;;34.40;31.17;;;;;;;;;;5054259;28;20437;-90
2022/04/29 10:46:21;;;;;;;33.07;30.37;;;;;;;;;;5054442;28;20418;-88
2022/04/29 10:48:48;;;;;;;33.53;30.53;;;;;;;;;;5054046;28;20477;-90
2022/04/29 10:51:19;;;;;;;35.57;32.07;;;;;;;;;;5054449;28;20450;-90
2022/04/29 10:53:47;;;;;;;36.73;33.63;;;;;;;;;;5054296;28;20430;-90
2022/04/29 10:56:33;;;;;;;35.20;32.23;;;;;;;;;;5054137;28;20461;-90
2022/04/29 10:59:12;;;;;;;34.07;31.20;;;;;;;;;;5054366;28;20440;-90
2022/04/29 11:01:40;;;;;;;37.30;33.97;;;;;;;;;;5054200;28;20439;-90
2022/04/29 11:04:08;;;;;;;35.63;32.87;;;;;;;;;;5052817;28;20429;-90
2022/04/29 11:06:51;;;;;;;35.00;32.10;;;;;;;;;;5054325;28;20467;-90
2022/04/29 11:09:28;;;;;;;37.30;34.27;;;;;;;;;;5054566;28;20445;-90
2022/04/29 11:11:56;;;;;;;37.63;34.33;;;;;;;;;;5053692;28;20939;-90
2022/04/29 11:14:24;;;;;;;33.37;30.87;;;;;;;;;;5053961;28;20417;-91
2022/04/29 11:16:52;;;;;;;34.10;31.20;;;;;;;;;;5053049;28;20892;-89
2022/04/29 11:19:21;;;;;;;35.50;32.70;;;;;;;;;;5052679;28;20469;-89
2022/04/29 11:24:42;;;;;;;35.27;32.10;;;;;;;;;;5053764;28;20939;-93
2022/04/29 11:27:09;;;;;;;34.17;31.37;;;;;;;;;;5054339;28;20433;-92
2022/04/29 11:29:43;;;;;;;36.00;32.70;;;;;;;;;;5054038;28;20853;-87
2022/04/29 11:32:10;;;;;;;38.53;35.33;;;;;;;;;;5084176;28;20429;-87
2022/04/29 11:34:51;;;;;;;34.90;32.20;;;;;;;;;;5073264;28;20453;-85
2022/04/29 11:37:24;;;;;;;35.07;31.97;;;;;;;;;;5074253;28;20413;-81
2022/04/29 11:39:52;;;;;;;34.27;31.47;;;;;;;;;;5073394;28;20417;-86
2022/04/29 11:42:20;;;;;;;34.33;31.63;;;;;;;;;;5073313;28;20439;-87
2022/04/29 11:44:49;;;;;;;33.73;30.70;;;;;;;;;;5073379;28;20417;-86
2022/04/29 11:47:18;;;;;;;34.13;31.37;;;;;;;;;;5073943;28;20429;-87
2022/04/29 11:49:45;;;;;;;35.33;31.73;;;;;;;;;;5075897;28;21075;-92
2022/04/29 11:52:19;;;;;;;34.07;31.17;;;;;;;;;;5076583;28;20517;-86
2022/04/29 11:54:52;;;;;;;35.57;32.23;;;;;;;;;;5076912;28;20424;-86
2022/04/29 11:57:20;;;;;;;34.77;31.83;;;;;;;;;;5076821;28;20836;-86
2022/04/29 11:59:47;;;;;;;36.60;33.37;;;;;;;;;;5076927;28;20833;-86
2022/04/29 12:02:18;;;;;;;35.23;32.30;;;;;;;;;;5076628;28;20431;-86
2022/04/29 12:04:58;;;;;;;34.20;31.50;;;;;;;;;;5076780;28;20405;-85
2022/04/29 12:07:26;;;;;;;33.60;31.10;;;;;;;;;;5092212;28;20446;-86
2022/04/29 12:09:55;;;;;;;35.40;32.60;;;;;;;;;;5077219;28;20453;-86
2022/04/29 12:12:27;;;;;;;36.03;32.93;;;;;;;;;;5076389;28;20786;-84
2022/04/29 12:14:55;;;;;;;36.53;33.43;;;;;;;;;;5076692;28;20437;-85
2022/04/29 12:17:32;;;;;;;33.60;31.20;;;;;;;;;;5076610;28;20468;-85
2022/04/29 12:20:00;;;;;;;34.10;31.43;;;;;;;;;;5076427;28;20452;-85
2022/04/29 12:22:30;;;;;;;35.03;32.40;;;;;;;;;;5076629;28;20429;-85
2022/04/29 12:24:59;;;;;;;33.90;31.10;;;;;;;;;;5076463;28;21015;-85
2022/04/29 12:27:31;;;;;;;34.40;31.50;;;;;;;;;;5076330;28;20789;-85
2022/04/29 12:35:30;;;;;;;36.80;33.67;;;;;;;;;;5075961;28;20401;-85
2022/04/29 12:37:57;;;;;;;32.83;30.53;;;;;;;;;;5075829;28;20421;-86
2022/04/29 12:40:30;;;;;;;33.83;31.30;;;;;;;;;;5076435;28;20461;-86
2022/04/29 12:43:10;;;;;;;33.73;31.03;;;;;;;;;;5075814;28;20474;-85
2022/04/29 12:45:38;;;;;;;35.07;32.30;;;;;;;;;;5075886;28;20431;-85
2022/04/29 12:48:06;;;;;;;33.43;30.63;;;;;;;;;;5074899;28;20848;-86
2022/04/29 12:50:36;;;;;;;34.00;31.40;;;;;;;;;;5075630;28;20457;-84
2022/04/29 12:53:05;;;;;;;33.47;30.73;;;;;;;;;;5075615;28;20931;-85
2022/04/29 12:55:35;;;;;;;32.17;29.57;;;;;;;;;;5075733;28;20486;-85
2022/04/29 12:58:07;;;;;;;33.60;30.63;;;;;;;;;;5075787;28;20496;-84
2022/04/29 13:00:35;;;;;;;31.67;29.30;;;;;;;;;;5074861;28;20454;-83
2022/04/29 13:03:03;;;;;;;31.60;29.10;;;;;;;;;;5074876;28;20434;-84
2022/04/29 13:05:32;;;;;;;32.20;29.43;;;;;;;;;;5075850;28;20413;-84
2022/04/29 13:07:59;;;;;;;32.43;29.90;;;;;;;;;;5075631;28;20417;-84
2022/04/29 13:10:27;;;;;;;30.73;28.43;;;;;;;;;;5075280;28;20486;-85
2022/04/29 13:12:56;;;;;;;31.07;28.57;;;;;;;;;;5075090;28;20409;-84
2022/04/29 13:15:23;;;;;;;31.30;28.80;;;;;;;;;;5074951;28;20961;-85
2022/04/29 13:17:50;;;;;;;30.77;28.13;;;;;;;;;;5075283;28;20883;-85
2022/04/29 13:20:18;;;;;;;30.30;28.00;;;;;;;;;;5074990;28;20406;-84
2022/04/29 13:22:45;;;;;;;30.83;28.40;;;;;;;;;;5075249;28;20478;-85
2022/04/29 13:25:12;;;;;;;31.43;28.50;;;;;;;;;;5075061;28;20805;-84
2022/04/29 13:27:40;;;;;;;30.90;28.23;;;;;;;;;;5075071;28;20434;-84
2022/04/29 13:30:09;;;;;;;30.93;28.50;;;;;;;;;;5074680;28;20465;-83
2022/04/29 13:32:37;;;;;;;29.73;27.47;;;;;;;;;;5073247;28;20424;-84
2022/04/29 13:35:06;;;;;;;30.87;28.57;;;;;;;;;;5074921;28;20418;-84
2022/04/29 13:37:35;;;;;;;31.03;28.60;;;;;;;;;;5075142;28;20944;-84
2022/04/29 13:40:02;;;;;;;30.10;27.90;;;;;;;;;;5074704;28;20898;-85
2022/04/29 13:42:32;;;;;;;31.00;28.53;;;;;;;;;;5074719;28;20409;-85
2022/04/29 13:45:02;;;;;;;30.43;27.83;;;;;;;;;;5074280;28;20483;-84
2022/04/29 13:47:32;;;;;;;29.70;27.20;;;;;;;;;;5074849;28;20455;-88
2022/04/29 13:49:59;;;;;;;30.67;28.20;;;;;;;;;;5074124;28;20505;-81
2022/04/29 13:55:12;;;;;;;29.80;27.33;;;;;;;;;;5073993;28;20421;-82
2022/04/29 13:57:40;;;;;;;30.23;28.03;;;;;;;;;;5074020;28;20409;-84
2022/04/29 14:00:09;;;;;;;30.17;27.13;;;;;;;;;;5073965;28;20478;-84
2022/04/29 14:02:38;;;;;;;29.27;27.07;;;;;;;;;;5073521;28;20452;-83
2022/04/29 14:05:06;;;;;;;30.57;28.27;;;;;;;;;;5074082;28;20457;-84
2022/04/29 14:07:34;;;;;;;31.23;28.53;;;;;;;;;;5074417;28;20409;-84
2022/04/29 14:10:01;;;;;;;30.43;27.80;;;;;;;;;;5074134;28;20551;-84
2022/04/29 14:12:29;;;;;;;30.87;28.57;;;;;;;;;;5072692;28;20940;-84
2022/04/29 14:14:56;;;;;;;30.37;28.17;;;;;;;;;;5073648;28;20919;-84
2022/04/29 14:17:24;;;;;;;31.47;29.00;;;;;;;;;;5073508;28;20413;-82
2022/04/29 14:19:52;;;;;;;30.77;28.20;;;;;;;;;;5073677;28;20446;-83
2022/04/29 14:22:20;;;;;;;30.47;28.30;;;;;;;;;;5074071;28;20449;-85
2022/04/29 14:24:48;;;;;;;29.83;27.50;;;;;;;;;;5073617;28;20417;-84
2022/04/29 14:27:15;;;;;;;31.07;28.93;;;;;;;;;;5073724;28;20413;-84
2022/04/29 14:29:43;;;;;;;29.27;27.17;;;;;;;;;;5073776;28;20494;-85
2022/04/29 14:32:11;;;;;;;30.53;28.37;;;;;;;;;;5073763;28;20409;-85
2022/04/29 14:34:39;;;;;;;30.30;27.70;;;;;;;;;;5072438;28;20504;-84
2022/04/29 14:37:07;;;;;;;29.03;26.90;;;;;;;;;;5073847;28;20405;-84
2022/04/29 14:39:35;;;;;;;28.63;26.50;;;;;;;;;;5074031;28;21043;-85
2022/04/29 14:42:02;;;;;;;29.37;27.23;;;;;;;;;;5074868;28;20413;-85
2022/04/29 14:44:30;;;;;;;27.80;26.00;;;;;;;;;;5074463;28;20512;-84
2022/04/29 14:46:59;;;;;;;27.10;25.20;;;;;;;;;;5074357;28;20471;-85
2022/04/29 14:49:27;;;;;;;28.60;26.40;;;;;;;;;;5073107;28;20459;-85
2022/04/29 14:51:54;;;;;;;28.43;26.43;;;;;;;;;;5072948;28;20466;-85
2022/04/29 14:54:23;;;;;;;27.27;25.47;;;;;;;;;;5073719;28;20939;-85
2022/04/29 14:56:53;;;;;;;26.83;24.93;;;;;;;;;;5073855;28;20457;-85
2022/04/29 14:59:20;;;;;;;28.53;26.57;;;;;;;;;;5074273;28;20417;-92